createdAt,value
2022-09-27T00:00:08.251Z,8.77
2022-09-27T00:02:43.664Z,6.45
2022-09-27T00:05:10.468Z,8.27
2022-09-27T00:07:37.180Z,7.22
2022-09-27T00:10:04.171Z,5.07
2022-09-27T00:12:30.882Z,7.40
2022-09-27T00:14:57.560Z,14.48
2022-09-27T00:17:24.237Z,5.63
2022-09-27T00:19:50.955Z,5.18
2022-09-27T00:22:17.669Z,9.82
2022-09-27T00:24:44.371Z,13.10
2022-09-27T00:27:11.031Z,7.55
2022-09-27T00:29:37.955Z,10.13
2022-09-27T00:32:04.676Z,6.38
2022-09-27T00:34:31.434Z,6.97
2022-09-27T00:36:58.369Z,12.00
2022-09-27T00:39:25.512Z,8.27
2022-09-27T00:41:52.445Z,6.45
2022-09-27T00:44:25.308Z,4.93
2022-09-27T00:47:22.138Z,6.93
2022-09-27T00:49:55.803Z,10.38
2022-09-27T00:52:35.329Z,10.32
2022-09-27T00:55:14.377Z,7.80
2022-09-27T00:57:43.415Z,5.72
2022-09-27T01:00:11.994Z,4.32
2022-09-27T01:02:40.537Z,11.32
2022-09-27T01:05:09.159Z,4.82
2022-09-27T01:07:36.106Z,7.63
2022-09-27T01:10:03.630Z,7.80
2022-09-27T01:12:51.377Z,5.53
2022-09-27T01:15:49.569Z,6.40
2022-09-27T01:18:35.640Z,6.50
2022-09-27T01:21:28.053Z,6.15
2022-09-27T01:24:25.081Z,4.00
2022-09-27T01:27:07.154Z,4.20
2022-09-27T01:30:11.392Z,7.45
2022-09-27T01:33:04.526Z,8.15
2022-09-27T01:35:46.900Z,6.28
2022-09-27T01:38:42.376Z,7.07
2022-09-27T01:41:33.100Z,6.93
2022-09-27T01:44:29.819Z,6.55
2022-09-27T01:47:12.281Z,7.13
2022-09-27T01:50:03.086Z,5.45
2022-09-27T01:52:39.426Z,7.85
2022-09-27T01:55:08.397Z,5.20
2022-09-27T01:57:46.666Z,10.10
2022-09-27T02:00:20.097Z,18.45
2022-09-27T02:02:58.180Z,5.90
2022-09-27T02:05:45.182Z,10.13
2022-09-27T02:08:28.106Z,6.70
2022-09-27T02:10:58.975Z,7.65
2022-09-27T02:13:58.459Z,8.85
2022-09-27T02:16:53.957Z,15.00
2022-09-27T02:19:52.019Z,9.43
2022-09-27T02:22:31.424Z,10.00
2022-09-27T02:25:11.382Z,6.93
2022-09-27T02:28:10.337Z,9.20
2022-09-27T02:30:37.674Z,10.52
2022-09-27T02:33:26.282Z,10.38
2022-09-27T02:35:53.001Z,5.18
2022-09-27T02:38:20.309Z,5.53
2022-09-27T02:40:47.959Z,2.97
2022-09-27T02:43:17.245Z,10.20
2022-09-27T02:45:56.496Z,4.53
2022-09-27T02:48:31.013Z,10.98
2022-09-27T02:51:33.944Z,6.88
2022-09-27T02:54:19.959Z,6.85
2022-09-27T02:57:20.195Z,6.57
2022-09-27T03:00:13.991Z,8.45
2022-09-27T03:03:16.003Z,6.13
2022-09-27T03:06:08.052Z,5.80
2022-09-27T03:08:35.103Z,9.95
2022-09-27T03:11:01.816Z,5.20
2022-09-27T03:13:29.387Z,12.43
2022-09-27T03:16:01.390Z,7.18
2022-09-27T03:18:47.569Z,10.55
2022-09-27T03:21:33.130Z,7.20
2022-09-27T03:23:59.846Z,9.05
2022-09-27T03:26:28.517Z,8.63
2022-09-27T03:28:55.397Z,4.55
2022-09-27T03:31:22.206Z,9.85
2022-09-27T03:34:07.490Z,10.13
2022-09-27T03:36:34.793Z,10.07
2022-09-27T03:39:01.583Z,14.95
2022-09-27T03:41:28.283Z,11.27
2022-09-27T03:43:57.897Z,12.48
2022-09-27T03:46:24.985Z,11.35
2022-09-27T03:48:51.975Z,9.70
2022-09-27T03:51:18.683Z,16.95
2022-09-27T03:53:45.479Z,7.40
2022-09-27T03:56:12.599Z,12.68
2022-09-27T03:58:39.331Z,12.90
2022-09-27T04:01:06.648Z,8.73
2022-09-27T04:03:36.162Z,8.88
2022-09-27T04:06:29.576Z,10.85
2022-09-27T04:08:56.593Z,12.57
2022-09-27T04:11:30.322Z,9.38
2022-09-27T04:13:57.766Z,14.32
2022-09-27T04:16:25.504Z,10.02
2022-09-27T04:19:22.171Z,12.05
2022-09-27T04:22:04.041Z,8.13
2022-09-27T04:24:31.774Z,9.30
2022-09-27T04:27:16.391Z,7.32
2022-09-27T04:29:45.760Z,7.95
2022-09-27T04:32:32.346Z,9.00
2022-09-27T04:35:37.945Z,12.52
2022-09-27T04:38:04.869Z,12.85
2022-09-27T04:40:35.560Z,6.68
2022-09-27T04:43:04.541Z,8.75
2022-09-27T04:45:31.734Z,9.35
2022-09-27T04:47:58.611Z,12.85
2022-09-27T04:50:27.907Z,12.43
2022-09-27T04:53:06.040Z,10.43
2022-09-27T04:55:32.901Z,9.18
2022-09-27T04:58:02.914Z,14.77
2022-09-27T05:00:30.281Z,14.40
2022-09-27T05:03:15.107Z,13.30
2022-09-27T05:05:53.292Z,13.35
2022-09-27T05:08:21.119Z,16.25
2022-09-27T05:11:07.783Z,16.73
2022-09-27T05:13:34.629Z,15.63
2022-09-27T05:16:05.181Z,16.42
2022-09-27T05:19:10.712Z,19.38
2022-09-27T05:22:03.740Z,20.27
2022-09-27T05:24:32.233Z,16.67
2022-09-27T05:27:00.528Z,20.38
2022-09-27T05:29:27.424Z,22.58
2022-09-27T05:32:06.644Z,18.08
2022-09-27T05:34:34.207Z,22.13
2022-09-27T05:37:04.096Z,27.30
2022-09-27T05:39:36.069Z,22.15
2022-09-27T05:42:04.887Z,19.00
2022-09-27T05:44:31.736Z,28.60
2022-09-27T05:47:04.332Z,23.63
2022-09-27T05:49:32.936Z,29.45
2022-09-27T05:52:02.291Z,31.55
2022-09-27T05:54:30.228Z,20.70
2022-09-27T05:57:00.461Z,23.88
2022-09-27T05:59:47.805Z,23.52
2022-09-27T06:02:23.362Z,27.20
2022-09-27T06:05:08.977Z,14.57
2022-09-27T06:07:42.289Z,11.15
2022-09-27T06:10:20.204Z,12.68
2022-09-27T06:12:59.598Z,10.57
2022-09-27T06:15:34.871Z,13.15
2022-09-27T06:18:07.546Z,9.35
2022-09-27T06:20:35.747Z,13.40
2022-09-27T06:23:18.563Z,11.00
2022-09-27T06:25:47.254Z,15.38
2022-09-27T06:28:22.335Z,14.55
2022-09-27T06:30:52.875Z,17.08
2022-09-27T06:33:49.748Z,17.67
2022-09-27T06:36:17.901Z,19.15
2022-09-27T06:38:48.345Z,20.40
2022-09-27T06:41:21.351Z,14.68
2022-09-27T06:44:08.842Z,16.15
2022-09-27T06:47:02.408Z,19.08
2022-09-27T06:49:46.938Z,18.02
2022-09-27T06:52:16.275Z,17.27
2022-09-27T06:54:42.967Z,17.95
2022-09-27T06:57:09.886Z,15.50
2022-09-27T06:59:55.572Z,12.57
2022-09-27T07:02:40.847Z,14.02
2022-09-27T07:05:44.556Z,17.80
2022-09-27T07:08:37.270Z,13.63
2022-09-27T07:11:08.934Z,19.35
2022-09-27T07:13:44.053Z,11.73
2022-09-27T07:16:13.406Z,15.70
2022-09-27T07:18:42.017Z,10.88
2022-09-27T07:21:09.404Z,14.65
2022-09-27T07:23:37.700Z,11.07
2022-09-27T07:26:08.435Z,13.45
2022-09-27T07:28:41.747Z,10.02
2022-09-27T07:31:15.474Z,9.70
2022-09-27T07:33:46.647Z,9.85
2022-09-27T07:36:17.919Z,4.53
2022-09-27T07:38:46.896Z,7.47
2022-09-27T07:41:19.269Z,6.28
2022-09-27T07:43:46.256Z,11.68
2022-09-27T07:46:14.612Z,11.38
2022-09-27T07:49:00.191Z,9.52
2022-09-27T07:51:45.539Z,3.22
2022-09-27T07:54:48.061Z,5.93
2022-09-27T07:57:46.496Z,4.82
2022-09-27T08:00:16.339Z,14.55
2022-09-27T08:02:45.925Z,7.10
2022-09-27T08:05:13.517Z,6.03
2022-09-27T08:07:40.904Z,4.57
2022-09-27T08:10:09.321Z,11.52
2022-09-27T08:12:37.622Z,8.43
2022-09-27T08:15:05.529Z,5.50
2022-09-27T08:17:32.851Z,4.63
2022-09-27T08:20:23.838Z,5.35
2022-09-27T08:23:05.618Z,7.40
2022-09-27T08:25:36.600Z,7.00
2022-09-27T08:28:26.666Z,9.13
2022-09-27T08:31:02.624Z,7.32
2022-09-27T08:33:32.859Z,8.05
2022-09-27T08:36:02.064Z,7.10
2022-09-27T08:38:29.078Z,9.50
2022-09-27T08:40:58.840Z,8.98
2022-09-27T08:43:44.539Z,7.32
2022-09-27T08:46:45.239Z,4.82
2022-09-27T08:49:19.878Z,4.50
2022-09-27T08:51:48.939Z,1.33
2022-09-27T08:54:25.581Z,5.32
2022-09-27T08:57:00.756Z,5.55
2022-09-27T08:59:30.801Z,6.28
2022-09-27T09:01:57.756Z,3.47
2022-09-27T09:04:39.243Z,4.88
2022-09-27T09:07:35.326Z,8.02
2022-09-27T09:10:38.158Z,3.90
2022-09-27T09:13:18.322Z,5.28
2022-09-27T09:16:23.388Z,4.43
2022-09-27T09:19:06.992Z,5.28
2022-09-27T09:22:13.733Z,8.07
2022-09-27T09:25:05.726Z,5.40
2022-09-27T09:28:04.688Z,5.68
2022-09-27T09:30:53.487Z,13.20
2022-09-27T09:33:35.270Z,3.63
2022-09-27T09:36:11.966Z,5.65
2022-09-27T09:38:54.181Z,6.47
2022-09-27T09:41:43.783Z,6.72
2022-09-27T09:44:21.157Z,6.70
2022-09-27T09:46:54.183Z,9.02
2022-09-27T09:49:27.410Z,7.30
2022-09-27T09:52:14.179Z,5.38
2022-09-27T09:54:51.942Z,6.85
2022-09-27T09:57:23.644Z,7.97
2022-09-27T10:00:07.648Z,4.18
2022-09-27T10:02:44.824Z,3.20
2022-09-27T10:05:19.534Z,5.13
2022-09-27T10:07:55.457Z,3.38
2022-09-27T10:10:22.867Z,1.90
2022-09-27T10:13:13.155Z,3.92
2022-09-27T10:15:40.119Z,4.20
2022-09-27T10:18:14.149Z,4.50
2022-09-27T10:20:51.344Z,2.67
2022-09-27T10:23:25.061Z,3.72
2022-09-27T10:26:13.744Z,4.07
2022-09-27T10:28:48.412Z,4.13
2022-09-27T10:31:20.733Z,6.05
2022-09-27T10:34:07.710Z,3.58
2022-09-27T10:36:41.599Z,4.53
2022-09-27T10:39:21.553Z,4.57
2022-09-27T10:41:50.967Z,3.42
2022-09-27T10:44:37.966Z,3.97
2022-09-27T10:47:26.999Z,2.42
2022-09-27T10:50:06.823Z,6.80
2022-09-27T10:53:12.249Z,3.83
2022-09-27T10:55:41.065Z,6.15
2022-09-27T10:58:24.889Z,2.38
2022-09-27T11:01:04.722Z,4.45
2022-09-27T11:03:56.119Z,4.00
2022-09-27T11:06:27.615Z,2.80
2022-09-27T11:12:23.219Z,2.50
2022-09-27T11:15:02.386Z,3.25
2022-09-27T11:17:32.488Z,6.45
2022-09-27T11:20:20.205Z,3.88
2022-09-27T11:23:11.573Z,4.55
2022-09-27T11:26:13.097Z,2.85
2022-09-27T11:29:15.640Z,3.00
2022-09-27T11:32:19.178Z,6.50
2022-09-27T11:35:06.516Z,3.70
2022-09-27T11:37:52.702Z,3.80
2022-09-27T11:40:44.286Z,3.63
2022-09-27T11:43:40.627Z,3.38
2022-09-27T11:46:19.208Z,4.75
2022-09-27T11:49:14.555Z,4.60
2022-09-27T11:54:43.924Z,4.82
2022-09-27T11:57:18.911Z,4.00
2022-09-27T11:59:49.725Z,4.80
2022-09-27T12:02:22.441Z,5.38
2022-09-27T12:05:31.383Z,6.50
2022-09-27T12:08:13.474Z,5.55
2022-09-27T12:10:42.433Z,6.60
2022-09-27T12:13:13.983Z,7.68
2022-09-27T12:18:38.913Z,7.28
2022-09-27T12:21:16.867Z,7.75
2022-09-27T12:26:52.166Z,4.90
2022-09-27T12:29:34.018Z,8.05
2022-09-27T12:32:26.786Z,7.03
2022-09-27T12:35:22.343Z,3.85
2022-09-27T12:38:23.151Z,4.45
2022-09-27T12:41:11.992Z,3.05
2022-09-27T12:43:51.338Z,4.80
2022-09-27T12:46:36.458Z,5.05
2022-09-27T12:49:10.275Z,4.32
2022-09-27T12:51:40.173Z,4.82
2022-09-27T12:57:20.966Z,3.55
2022-09-27T13:00:25.390Z,3.55
2022-09-27T13:03:50.391Z,3.92
2022-09-27T13:07:04.811Z,2.60
2022-09-27T13:09:54.768Z,4.30
2022-09-27T13:12:32.118Z,3.78
2022-09-27T13:15:15.618Z,5.50
2022-09-27T13:17:44.179Z,4.35
2022-09-27T13:20:37.808Z,4.38
2022-09-27T13:36:20.816Z,2.83
2022-09-27T13:39:06.659Z,3.03
2022-09-27T13:45:18.105Z,1.70
2022-09-27T13:47:47.859Z,2.80
2022-09-27T13:50:37.944Z,2.97
2022-09-27T13:53:23.657Z,4.65
2022-09-27T13:55:52.281Z,1.83
2022-09-27T13:58:48.270Z,1.88
2022-09-27T14:01:37.355Z,2.85
2022-09-27T14:04:22.459Z,2.20
2022-09-27T14:06:52.883Z,2.30
2022-09-27T14:09:35.505Z,2.80
2022-09-27T14:12:19.208Z,2.10
2022-09-27T14:14:47.634Z,2.22
2022-09-27T14:17:15.240Z,6.05
2022-09-27T14:19:44.686Z,2.50
2022-09-27T14:22:19.718Z,3.42
2022-09-27T14:24:56.100Z,3.00
2022-09-27T14:27:40.926Z,2.42
2022-09-27T14:30:29.944Z,1.48
2022-09-27T14:33:28.086Z,2.03
2022-09-27T14:36:14.027Z,2.05
2022-09-27T14:38:44.091Z,2.78
2022-09-27T14:41:20.236Z,5.93
2022-09-27T14:43:50.571Z,5.53
2022-09-27T14:46:29.504Z,2.42
2022-09-27T14:48:56.591Z,2.85
2022-09-27T14:51:29.076Z,2.38
2022-09-27T14:54:00.083Z,5.50
2022-09-27T14:56:33.077Z,1.50
2022-09-27T14:59:05.508Z,3.25
2022-09-27T15:01:33.084Z,2.35
2022-09-27T15:04:06.019Z,1.65
2022-09-27T15:06:35.488Z,2.30
2022-09-27T15:09:04.128Z,1.40
2022-09-27T15:11:33.329Z,1.48
2022-09-27T15:14:02.065Z,2.85
2022-09-27T15:16:31.337Z,1.73
2022-09-27T15:19:18.986Z,2.55
2022-09-27T15:21:47.150Z,2.28
2022-09-27T15:24:36.889Z,1.58
2022-09-27T15:27:04.699Z,2.13
2022-09-27T15:29:39.873Z,3.22
2022-09-27T15:32:16.796Z,1.58
2022-09-27T15:34:51.532Z,1.08
2022-09-27T15:37:29.263Z,1.38
2022-09-27T15:43:45.602Z,1.17
2022-09-27T15:46:15.329Z,2.53
2022-09-27T15:48:42.120Z,1.60
2022-09-27T15:51:40.656Z,2.38
2022-09-27T15:54:09.629Z,3.38
2022-09-27T15:56:37.982Z,1.85
2022-09-27T15:59:05.216Z,4.50
2022-09-27T16:01:32.857Z,1.20
2022-09-27T16:04:01.049Z,1.67
2022-09-27T16:06:28.859Z,1.08
2022-09-27T16:08:55.602Z,1.02
2022-09-27T16:11:24.379Z,1.33
2022-09-27T16:13:52.949Z,2.10
2022-09-27T16:16:20.901Z,1.20
2022-09-27T16:21:31.781Z,2.08
2022-09-27T16:24:02.957Z,3.97
2022-09-27T16:26:34.288Z,2.20
2022-09-27T16:29:01.420Z,8.43
2022-09-27T16:31:28.922Z,6.05
2022-09-27T16:33:56.435Z,1.52
2022-09-27T16:36:24.281Z,1.42
2022-09-27T16:38:54.231Z,1.10
2022-09-27T16:41:25.094Z,2.75
2022-09-27T16:44:08.496Z,1.50
2022-09-27T16:49:51.093Z,4.55
2022-09-27T16:52:18.139Z,2.05
2022-09-27T16:54:44.886Z,4.13
2022-09-27T16:57:12.126Z,1.40
2022-09-27T16:59:40.799Z,3.60
2022-09-27T17:02:09.872Z,5.00
2022-09-27T17:04:36.855Z,4.03
2022-09-27T17:07:16.926Z,6.25
2022-09-27T17:09:44.169Z,3.60
2022-09-27T17:12:12.166Z,4.93
2022-09-27T17:14:38.943Z,3.35
2022-09-27T17:17:07.726Z,4.35
2022-09-27T17:19:35.108Z,2.83
2022-09-27T17:22:05.320Z,4.43
2022-09-27T17:24:32.085Z,3.15
2022-09-27T17:26:58.775Z,4.15
2022-09-27T17:29:25.577Z,2.95
2022-09-27T17:31:53.977Z,4.25
2022-09-27T17:34:21.871Z,6.97
2022-09-27T17:36:49.499Z,4.15
2022-09-27T17:39:18.653Z,4.90
2022-09-27T17:41:45.724Z,8.45
2022-09-27T17:44:14.504Z,5.15
2022-09-27T17:46:42.404Z,6.55
2022-09-27T17:49:31.677Z,3.88
2022-09-27T17:52:01.668Z,5.80
2022-09-27T17:54:28.596Z,8.57
2022-09-27T17:56:56.482Z,20.95
2022-09-27T17:59:23.237Z,21.38
2022-09-27T18:02:01.563Z,7.40
2022-09-27T18:04:28.547Z,11.05
2022-09-27T18:06:55.157Z,8.95
2022-09-27T18:09:22.884Z,6.03
2022-09-27T18:11:52.831Z,7.15
2022-09-27T18:14:23.480Z,6.00
2022-09-27T18:16:51.191Z,4.38
2022-09-27T18:19:17.905Z,3.42
2022-09-27T18:21:47.982Z,4.63
2022-09-27T18:24:14.810Z,3.35
2022-09-27T18:26:41.954Z,10.75
2022-09-27T18:29:14.260Z,4.70
2022-09-27T18:31:47.466Z,3.97
2022-09-27T18:34:17.192Z,5.28
2022-09-27T18:36:46.318Z,6.82
2022-09-27T18:39:19.859Z,5.50
2022-09-27T18:41:51.443Z,5.03
2022-09-27T18:44:19.346Z,3.42
2022-09-27T18:46:46.618Z,7.35
2022-09-27T18:49:15.167Z,8.55
2022-09-27T18:51:47.990Z,7.68
2022-09-27T18:54:20.674Z,7.40
2022-09-27T18:56:48.816Z,5.60
2022-09-27T18:59:17.779Z,8.45
2022-09-27T19:01:46.514Z,11.30
2022-09-27T19:04:25.042Z,7.63
2022-09-27T19:07:03.986Z,9.50
2022-09-27T19:09:31.535Z,9.32
2022-09-27T19:12:03.244Z,6.00
2022-09-27T19:14:34.097Z,6.95
2022-09-27T19:17:12.095Z,7.10
2022-09-27T19:19:43.294Z,14.55
2022-09-27T19:22:10.101Z,6.32
2022-09-27T19:24:36.991Z,5.28
2022-09-27T19:27:03.642Z,3.40
2022-09-27T19:29:30.390Z,4.45
2022-09-27T19:31:57.078Z,5.93
2022-09-27T19:37:04.396Z,12.57
2022-09-27T19:39:31.303Z,7.78
2022-09-27T19:41:58.013Z,15.38
2022-09-27T19:44:26.048Z,13.25
2022-09-27T19:46:55.633Z,11.95
2022-09-27T19:49:26.337Z,9.82
2022-09-27T19:51:55.192Z,10.20
2022-09-27T19:54:22.944Z,8.55
2022-09-27T19:56:50.955Z,7.20
2022-09-27T19:59:18.015Z,13.07
2022-09-27T20:01:46.076Z,7.30
2022-09-27T20:06:54.875Z,10.77
2022-09-27T20:09:23.009Z,7.60
2022-09-27T20:11:49.887Z,11.35
2022-09-27T20:14:16.664Z,9.30
2022-09-27T20:16:43.432Z,5.65
2022-09-27T20:19:13.179Z,6.97
2022-09-27T20:21:40.114Z,8.15
2022-09-27T20:24:06.907Z,10.88
2022-09-27T20:26:36.455Z,10.32
2022-09-27T20:29:04.909Z,7.72
2022-09-27T20:31:34.135Z,8.15
2022-09-27T20:34:01.278Z,4.13
2022-09-27T20:36:31.719Z,6.15
2022-09-27T20:39:03.642Z,6.07
2022-09-27T20:41:38.567Z,4.93
2022-09-27T20:44:07.714Z,6.43
2022-09-27T20:46:36.640Z,8.25
2022-09-27T20:49:05.558Z,16.45
2022-09-27T20:51:33.404Z,14.60
2022-09-27T20:54:01.315Z,8.43
2022-09-27T20:56:33.176Z,11.10
2022-09-27T20:59:02.074Z,7.20
2022-09-27T21:01:29.949Z,9.80
2022-09-27T21:04:18.130Z,10.38
2022-09-27T21:06:45.116Z,13.15
2022-09-27T21:09:18.211Z,7.28
2022-09-27T21:11:46.927Z,9.10
2022-09-27T21:14:13.772Z,8.98
2022-09-27T21:16:40.650Z,7.38
2022-09-27T21:19:07.611Z,11.38
2022-09-27T21:21:34.544Z,12.68
2022-09-27T21:24:07.090Z,10.77
2022-09-27T21:26:34.582Z,8.85
2022-09-27T21:29:05.200Z,8.43
2022-09-27T21:31:33.294Z,13.07
2022-09-27T21:36:42.261Z,8.07
2022-09-27T21:39:09.751Z,12.27
2022-09-27T21:41:36.886Z,12.27
2022-09-27T21:44:04.861Z,10.75
2022-09-27T21:46:32.508Z,14.88
2022-09-27T21:49:05.093Z,9.18
2022-09-27T21:51:36.557Z,7.32
2022-09-27T21:54:05.681Z,14.38
2022-09-27T21:56:39.333Z,12.20
2022-09-27T21:59:07.611Z,13.05
2022-09-27T22:01:35.118Z,15.48
2022-09-27T22:04:07.871Z,12.75
2022-09-27T22:06:36.771Z,10.60
2022-09-27T22:09:09.273Z,9.90
2022-09-27T22:11:43.967Z,10.57
2022-09-27T22:14:11.253Z,16.30
2022-09-27T22:16:39.418Z,16.40
2022-09-27T22:19:06.288Z,16.58
2022-09-27T22:21:36.115Z,12.85
2022-09-27T22:24:08.448Z,12.35
2022-09-27T22:26:37.598Z,11.80
2022-09-27T22:29:04.910Z,14.43
2022-09-27T22:31:31.800Z,11.68
2022-09-27T22:34:00.995Z,12.43
2022-09-27T22:36:28.393Z,8.30
2022-09-27T22:38:55.373Z,8.77
2022-09-27T22:41:25.173Z,11.80
2022-09-27T22:43:55.417Z,9.77
2022-09-27T22:46:22.404Z,8.38
2022-09-27T22:48:52.705Z,7.53
2022-09-27T22:51:31.734Z,5.78
2022-09-27T22:54:00.379Z,8.35
2022-09-27T22:56:27.652Z,8.23
2022-09-27T22:58:56.144Z,7.45
2022-09-27T23:01:24.773Z,9.13
2022-09-27T23:03:54.085Z,5.22
2022-09-27T23:06:21.910Z,8.77
2022-09-27T23:08:48.953Z,6.88
2022-09-27T23:11:20.125Z,7.75
2022-09-27T23:13:48.301Z,7.40
2022-09-27T23:16:20.822Z,4.32
2022-09-27T23:18:54.483Z,10.90
2022-09-27T23:21:22.791Z,8.25
2022-09-27T23:23:49.581Z,5.28
2022-09-27T23:26:17.409Z,8.65
2022-09-27T23:28:44.327Z,6.30
2022-09-27T23:31:16.750Z,7.53
2022-09-27T23:33:45.730Z,7.40
2022-09-27T23:36:17.158Z,13.85
2022-09-27T23:38:45.650Z,8.52
2022-09-27T23:41:13.802Z,8.45
2022-09-27T23:43:40.504Z,8.52
2022-09-27T23:46:08.060Z,7.78
2022-09-27T23:48:35.828Z,9.18
2022-09-27T23:51:03.919Z,11.20
2022-09-27T23:53:30.541Z,7.25
2022-09-27T23:56:15.368Z,8.15
2022-09-27T23:58:44.919Z,7.72
